MGGT

La Aurora Airport

Guatemala City, Guatemala
MGGT 170500Z 1706/1806 36012KT 9999 FEW014 TX24/1720Z TN14/1712Z TEMPO 1706/1715 36016KT SCT012 BECMG 1715/1717 02016KT FEW018 BECMG 1801/1803 36012KT FEW016
Issued Valid From Valid To
Nov-17 @ 05:00 UTC
(4 hours ago)
Nov-17 @ 06:00 UTC
(3 hours ago)
Nov-18 @ 06:00 UTC
(in 21 hours)
Nov-17 @ 06:00 to Nov-17 @ 15:00
MGGT 170500Z 1706/1806 36012KT 9999 FEW014 TX24/1720Z TN14/1712Z
Wind Visibility Clouds
360° at 12 knots 10,000+ meters
  • Few at 1,400' AGL
Temporary Nov-17 @ 06:00 to Nov-17 @ 15:00
TEMPO 1706/1715 36016KT SCT012
Wind Clouds
360° at 16 knots
  • Scattered at 1,200' AGL
Becoming Nov-17 @ 15:00 to Nov-18 @ 01:00
BECMG 1715/1717 02016KT FEW018
Wind Visibility Clouds
20° at 16 knots 10,000+ meters
  • Few at 1,800' AGL
Becoming Nov-18 @ 01:00 to Nov-18 @ 06:00
BECMG 1801/1803 36012KT FEW016
Wind Visibility Clouds
360° at 12 knots 10,000+ meters
  • Few at 1,600' AGL
MGGT 170500Z 1706/1806 36012KT 9999 FEW014 TX24/1720Z TN14/1712Z TEMPO 1706/1715 36016KT SCT012 BECMG 1715/1717 02016KT FEW018 BECMG 1801/1803 36012KT FEW016
Issued Nov-17 @ 05:00 UTC
(4 hours ago)
Valid From Nov-17 @ 06:00 UTC
(3 hours ago)
Valid To Nov-18 @ 06:00 UTC
(in 21 hours)
Nov-17 @ 06:00 - Nov-17 @ 15:00
Wind Visibility
360° at 12 knots 10,000+ meters
Clouds
  • Few at 1,400' AGL
Temporary Nov-17 @ 06:00 - Nov-17 @ 15:00
Wind
360° at 16 knots
Clouds
  • Scattered at 1,200' AGL
Becoming Nov-17 @ 15:00 - Nov-18 @ 01:00
Wind Visibility
20° at 16 knots 10,000+ meters
Clouds
  • Few at 1,800' AGL
Becoming Nov-18 @ 01:00 - Nov-18 @ 06:00
Wind Visibility
360° at 12 knots 10,000+ meters
Clouds
  • Few at 1,600' AGL